Time;durP1;ratioP1;P1;durP2;ratioP2;P2;SDS_P1;SDS_P2;PMS_P1;PMS_P2;Temp;Humidity;BMP_temperature;BMP_pressure;BME280_temperature;BME280_humidity;BME280_pressure;Samples;Min_cycle;Max_cycle;Signal;HPM_P1;HPM_P2
2022/08/22 00:00:31;;;;;;;2.88;2.10;;;;;;;18.60;54.26;92699.22;2018176;71;20630;-77
2022/08/22 00:03:02;;;;;;;6.15;2.70;;;;;;;17.92;56.09;92697.09;2018490;71;20215;-77
2022/08/22 00:05:31;;;;;;;4.53;2.65;;;;;;;18.03;55.00;92693.16;2018574;71;20150;-77
2022/08/22 00:08:16;;;;;;;2.70;2.10;;;;;;;18.18;55.01;92690.78;2018400;71;20200;-78
2022/08/22 00:11:06;;;;;;;3.58;2.38;;;;;;;18.34;53.76;92685.63;2018141;71;20643;-77
2022/08/22 00:13:46;;;;;;;4.00;2.05;;;;;;;18.06;55.76;92696.81;2014568;71;20189;-77
2022/08/22 00:16:19;;;;;;;3.60;2.20;;;;;;;18.14;54.71;92704.88;2018435;71;20233;-77
2022/08/22 00:19:17;;;;;;;3.55;1.90;;;;;;;18.07;55.46;92698.28;2014709;71;20527;-77
2022/08/22 00:22:07;;;;;;;4.78;2.50;;;;;;;18.08;55.07;92704.69;2013836;71;20231;-76
2022/08/22 00:24:45;;;;;;;5.28;2.05;;;;;;;18.02;55.25;92708.09;2018668;71;20161;-77
2022/08/22 00:27:20;;;;;;;7.03;1.98;;;;;;;18.16;54.95;92702.84;2018707;71;20255;-77
2022/08/22 00:29:53;;;;;;;4.25;2.00;;;;;;;17.94;56.05;92704.97;2018739;71;20210;-77
2022/08/22 00:32:53;;;;;;;3.83;2.40;;;;;;;18.08;56.24;92704.69;2018403;71;20165;-77
2022/08/22 00:35:22;;;;;;;5.57;2.30;;;;;;;17.99;55.77;92706.53;2018736;71;20177;-76
2022/08/22 00:38:09;;;;;;;6.05;2.60;;;;;;;18.19;55.73;92704.38;2018199;71;20145;-76
2022/08/22 00:41:10;;;;;;;3.65;2.10;;;;;;;18.08;55.15;92701.84;2018248;71;20199;-76
2022/08/22 00:43:42;;;;;;;2.20;2.00;;;;;;;18.02;54.76;92703.13;2010340;71;20158;-77
2022/08/22 00:46:40;;;;;;;2.78;2.08;;;;;;;18.03;55.55;92696.03;2018748;71;20219;-76
2022/08/22 00:49:21;;;;;;;3.13;2.33;;;;;;;17.90;55.81;92699.13;2018463;71;20168;-76
2022/08/22 00:51:52;;;;;;;3.35;2.20;;;;;;;18.08;53.88;92696.16;2018376;71;20188;-76
2022/08/22 00:54:33;;;;;;;4.47;2.60;;;;;;;17.95;54.79;92692.91;2018296;71;20241;-75
2022/08/22 00:57:17;;;;;;;4.07;2.20;;;;;;;17.98;55.71;92697.28;2014940;71;20154;-76
2022/08/22 01:00:11;;;;;;;2.67;2.00;;;;;;;18.13;54.71;92695.63;2014667;71;20222;-76
2022/08/22 01:03:28;;;;;;;4.57;2.30;;;;;;;17.85;56.20;92692.56;2018319;71;20141;-76
2022/08/22 01:06:21;;;;;;;4.28;2.10;;;;;;;17.83;56.43;92700.31;2016077;71;20165;-76
2022/08/22 01:09:14;;;;;;;4.25;2.30;;;;;;;18.12;54.52;92691.31;2017505;71;20154;-76
2022/08/22 01:11:49;;;;;;;;;;;;;;;18.15;54.93;92692.84;2018699;71;20253;-76
2022/08/22 01:14:54;;;;;;;2.63;2.05;;;;;;;17.93;56.93;92687.16;2018190;71;20154;-77
2022/08/22 01:17:46;;;;;;;4.80;2.28;;;;;;;17.98;56.11;92688.72;2018558;71;20674;-77
2022/08/22 01:20:17;;;;;;;4.65;2.47;;;;;;;17.91;56.20;92687.06;2018379;71;20639;-77
2022/08/22 01:23:17;;;;;;;4.22;2.20;;;;;;;17.91;55.69;92692.03;2018428;71;20595;-76
2022/08/22 01:26:10;;;;;;;6.80;2.50;;;;;;;18.13;52.90;92686.34;2014694;71;20227;-76
2022/08/22 01:29:03;;;;;;;4.15;2.22;;;;;;;18.03;54.48;92687.47;2018434;71;20232;-76
2022/08/22 01:31:41;;;;;;;;;;;;;;;17.88;55.39;92684.81;2018642;71;20312;-75
2022/08/22 01:34:35;;;;;;;4.55;2.15;;;;;;;17.90;55.76;92682.75;2018579;71;20100;-76
2022/08/22 01:37:06;;;;;;;5.80;2.42;;;;;;;17.71;56.08;92681.41;2018310;71;20601;-76
2022/08/22 01:40:07;;;;;;;3.38;2.25;;;;;;;17.84;55.88;92679.00;2014964;71;20162;-76
2022/08/22 01:42:54;;;;;;;3.17;2.20;;;;;;;17.78;56.45;92683.09;2015221;71;20142;-76
2022/08/22 01:46:02;;;;;;;5.00;2.28;;;;;;;17.72;55.65;92682.84;2018366;71;20209;-76
2022/08/22 01:48:54;;;;;;;3.42;2.30;;;;;;;17.71;56.68;92681.41;2006095;71;20242;-77
2022/08/22 01:51:24;;;;;;;3.20;2.30;;;;;;;17.73;56.48;92690.03;2016868;71;20221;-77
2022/08/22 01:54:11;;;;;;;7.22;2.40;;;;;;;17.97;55.09;92686.56;2018376;71;20250;-77
2022/08/22 01:56:43;;;;;;;4.15;2.55;;;;;;;17.83;53.82;92697.47;2017596;71;20176;-77
2022/08/22 01:59:23;;;;;;;2.97;2.22;;;;;;;17.79;55.96;92698.06;2018523;71;20154;-77
2022/08/22 02:01:55;;;;;;;3.45;1.98;;;;;;;17.75;55.84;92692.22;2018074;71;20146;-77
2022/08/22 02:04:36;;;;;;;2.65;1.92;;;;;;;17.69;56.36;92692.00;2018619;71;20248;-78
2022/08/22 02:07:45;;;;;;;4.15;2.28;;;;;;;17.68;56.87;92693.38;2017915;71;20158;-76
2022/08/22 02:10:48;;;;;;;3.88;2.10;;;;;;;17.76;55.66;92696.53;2013584;71;20253;-77
2022/08/22 02:13:57;;;;;;;4.25;2.50;;;;;;;17.74;54.58;92691.50;2018722;71;20179;-76
2022/08/22 02:16:54;;;;;;;5.50;2.28;;;;;;;17.51;56.18;92689.97;2018380;71;20150;-77
2022/08/22 02:19:29;;;;;;;4.15;2.30;;;;;;;17.09;58.46;92694.13;2018342;71;20670;-78
2022/08/22 02:22:24;;;;;;;4.97;2.53;;;;;;;17.37;56.94;92689.47;2015393;71;20619;-77
2022/08/22 02:25:03;;;;;;;3.92;2.22;;;;;;;17.27;57.56;92700.47;2018659;71;20230;-77
2022/08/22 02:27:59;;;;;;;3.80;2.53;;;;;;;16.81;60.33;92694.53;2015152;71;20678;-76
2022/08/22 02:30:55;;;;;;;6.55;2.38;;;;;;;17.07;59.32;92696.91;2018261;71;20170;-76
2022/08/22 02:33:56;;;;;;;5.63;2.28;;;;;;;17.16;57.85;92690.13;2018338;71;20181;-76
2022/08/22 02:36:39;;;;;;;5.25;2.58;;;;;;;17.28;57.70;92693.41;2018452;71;20141;-76
2022/08/22 02:39:38;;;;;;;3.83;2.38;;;;;;;17.30;58.29;92695.59;2018492;71;20188;-76
2022/08/22 02:42:36;;;;;;;4.80;2.50;;;;;;;17.02;59.50;92696.75;2018357;71;20248;-77
2022/08/22 02:45:12;;;;;;;2.45;2.20;;;;;;;17.07;58.14;92694.78;2018612;71;20150;-76
2022/08/22 02:47:44;;;;;;;3.88;2.05;;;;;;;17.18;58.29;92698.72;2018819;71;20173;-77
2022/08/22 02:50:26;;;;;;;2.90;2.33;;;;;;;17.23;57.58;92697.50;2018443;71;20718;-76
2022/08/22 02:52:57;;;;;;;3.38;2.40;;;;;;;17.15;58.68;92695.09;2018794;71;20138;-77
2022/08/22 02:55:50;;;;;;;4.35;2.30;;;;;;;17.08;59.18;92693.41;2018754;71;20174;-76
2022/08/22 02:58:30;;;;;;;5.05;2.30;;;;;;;17.05;58.93;92697.56;2015137;71;20323;-77
2022/08/22 03:01:02;;;;;;;5.47;2.38;;;;;;;17.03;58.85;92683.25;2018426;71;20614;-77
2022/08/22 03:03:37;;;;;;;4.38;2.47;;;;;;;16.94;58.67;92676.53;2018387;71;20491;-77
2022/08/22 03:06:31;;;;;;;5.28;2.50;;;;;;;16.76;58.96;92684.38;2012530;71;20150;-79
2022/08/22 03:09:15;;;;;;;3.35;2.40;;;;;;;17.01;57.36;92680.34;2018615;71;20534;-76
2022/08/22 03:12:00;;;;;;;4.68;2.38;;;;;;;17.13;56.47;92689.31;2018496;71;20236;-76
2022/08/22 03:14:53;;;;;;;2.97;2.30;;;;;;;17.21;54.70;92689.59;2018356;71;20253;-77
2022/08/22 03:17:39;;;;;;;4.60;2.38;;;;;;;17.07;58.33;92683.41;2018502;71;20217;-77
2022/08/22 03:20:39;;;;;;;4.07;2.20;;;;;;;16.90;57.49;92687.03;2018938;71;20177;-75
2022/08/22 03:23:21;;;;;;;3.50;2.17;;;;;;;16.84;59.23;92675.44;2018851;71;20203;-76
2022/08/22 03:25:58;;;;;;;4.60;2.30;;;;;;;16.99;56.71;92666.03;2018206;71;20149;-76
2022/08/22 03:28:36;;;;;;;5.57;2.45;;;;;;;16.93;58.31;92682.88;2018673;71;20141;-76
2022/08/22 03:31:36;;;;;;;6.25;2.45;;;;;;;16.89;58.24;92683.47;2018447;71;20236;-76
2022/08/22 03:34:33;;;;;;;3.55;2.50;;;;;;;16.81;57.18;92679.59;2017451;71;20142;-77
2022/08/22 03:37:10;;;;;;;2.95;2.20;;;;;;;16.92;56.55;92670.06;2018982;71;20158;-77
2022/08/22 03:39:55;;;;;;;3.47;2.50;;;;;;;16.72;58.94;92679.31;2018821;71;20152;-77
2022/08/22 03:42:23;;;;;;;4.13;2.40;;;;;;;16.75;57.29;92685.78;2018743;71;20173;-77
2022/08/22 03:45:13;;;;;;;3.95;2.45;;;;;;;16.76;57.78;92682.28;2018695;71;20178;-77
2022/08/22 03:48:26;;;;;;;3.00;2.25;;;;;;;16.67;58.45;92682.59;2018760;71;20146;-77
2022/08/22 03:51:12;;;;;;;4.87;3.00;;;;;;;16.45;59.18;92688.91;2008075;71;20142;-77
2022/08/22 03:53:38;;;;;;;4.28;2.72;;;;;;;16.15;61.16;92688.41;2008258;71;20158;-77
2022/08/22 03:56:45;;;;;;;3.63;2.60;;;;;;;16.16;61.02;92700.50;2008045;71;20154;-77
2022/08/22 03:59:42;;;;;;;4.00;2.42;;;;;;;16.58;58.27;92697.88;2004752;71;20186;-77
2022/08/22 04:02:32;;;;;;;4.07;2.60;;;;;;;16.51;59.54;92691.25;2004849;71;20143;-76
2022/08/22 04:05:17;;;;;;;5.00;2.58;;;;;;;16.44;57.94;92689.53;2007660;71;20237;-77
2022/08/22 04:08:03;;;;;;;4.10;2.88;;;;;;;16.34;60.05;92694.81;2008026;71;20166;-76
2022/08/22 04:10:29;;;;;;;6.03;3.00;;;;;;;16.33;59.10;92688.41;2008091;71;20182;-77
2022/08/22 04:13:23;;;;;;;5.43;2.58;;;;;;;16.22;59.92;92687.28;2008022;71;20254;-77
2022/08/22 04:16:08;;;;;;;9.00;4.47;;;;;;;16.30;59.95;92692.53;2008156;71;20195;-77
2022/08/22 04:18:49;;;;;;;12.32;5.20;;;;;;;16.26;59.66;92695.97;2008190;71;20245;-77
2022/08/22 04:21:24;;;;;;;8.82;4.22;;;;;;;16.27;60.38;92691.03;2012186;71;20322;-77
2022/08/22 04:24:27;;;;;;;10.23;6.43;;;;;;;16.27;59.99;92691.03;2018846;71;20318;-77
2022/08/22 04:27:31;;;;;;;6.57;3.60;;;;;;;16.09;60.88;92687.47;2018929;71;20268;-77
2022/08/22 04:30:34;;;;;;;9.13;2.70;;;;;;;16.21;60.72;92685.09;2018179;71;20189;-77
2022/08/22 04:33:06;;;;;;;4.60;2.47;;;;;;;16.18;60.50;92689.25;2018706;71;20593;-77
2022/08/22 04:35:34;;;;;;;3.13;2.45;;;;;;;16.33;58.83;92693.38;2018786;71;20602;-77
2022/08/22 04:38:41;;;;;;;4.20;2.70;;;;;;;16.30;59.75;92697.50;2015189;71;20146;-77
2022/08/22 04:41:07;;;;;;;7.00;3.03;;;;;;;15.98;60.58;92700.50;2007785;71;20154;-77
2022/08/22 04:43:43;;;;;;;5.90;2.90;;;;;;;16.27;59.24;92705.97;2016708;71;20173;-77
2022/08/22 04:46:25;;;;;;;3.97;2.63;;;;;;;16.20;60.22;92697.84;2018897;71;20146;-78
2022/08/22 04:49:23;;;;;;;5.97;2.75;;;;;;;16.14;60.09;92704.00;2018771;71;20193;-78
2022/08/22 04:52:03;;;;;;;6.60;3.08;;;;;;;16.11;61.08;92705.28;2018563;71;20598;-78
2022/08/22 04:55:03;;;;;;;3.13;2.67;;;;;;;16.33;60.28;92713.25;2018726;71;20237;-76
2022/08/22 04:58:08;;;;;;;6.40;2.80;;;;;;;16.32;59.39;92708.97;2018683;71;20161;-77
2022/08/22 05:00:43;;;;;;;4.03;2.90;;;;;;;16.26;58.83;92707.34;2007866;71;20178;-78
2022/08/22 05:03:13;;;;;;;5.45;2.80;;;;;;;15.95;61.79;92713.91;2007968;71;20513;-78
2022/08/22 05:05:42;;;;;;;8.27;3.40;;;;;;;15.77;62.52;92715.97;2008016;71;20186;-77
2022/08/22 05:08:12;;;;;;;4.47;2.88;;;;;;;16.10;59.61;92723.00;2008027;71;20159;-77
2022/08/22 05:10:45;;;;;;;6.28;2.60;;;;;;;16.31;58.65;92713.16;2007991;71;20234;-77
2022/08/22 05:13:17;;;;;;;5.65;3.08;;;;;;;16.13;61.23;92718.88;2007813;71;20174;-77
2022/08/22 05:15:53;;;;;;;4.75;2.97;;;;;;;16.04;61.07;92725.59;2008019;71;20585;-77
2022/08/22 05:18:27;;;;;;;5.65;2.88;;;;;;;16.03;61.55;92719.16;2005447;71;20577;-78
2022/08/22 05:20:56;;;;;;;5.47;3.10;;;;;;;16.06;60.60;92722.81;2008285;71;20178;-77
2022/08/22 05:23:28;;;;;;;4.43;3.15;;;;;;;16.08;61.56;92725.72;2005411;71;20182;-78
2022/08/22 05:25:59;;;;;;;3.38;2.60;;;;;;;16.12;59.88;92723.06;2007882;71;20182;-78
2022/08/22 05:28:46;;;;;;;7.68;3.25;;;;;;;16.10;60.30;92729.41;2007765;71;20207;-78
2022/08/22 05:31:16;;;;;;;6.80;3.00;;;;;;;16.04;60.90;92734.84;2005201;71;20158;-78
2022/08/22 05:33:50;;;;;;;4.60;2.70;;;;;;;16.04;61.64;92736.94;2007856;71;20154;-78
2022/08/22 05:36:34;;;;;;;3.67;2.42;;;;;;;16.05;61.65;92738.41;2009508;71;20268;-78
2022/08/22 05:39:20;;;;;;;6.32;2.83;;;;;;;16.07;60.65;92735.63;2018745;71;20236;-78
2022/08/22 05:41:48;;;;;;;7.07;3.00;;;;;;;16.16;61.61;92732.47;2011988;71;20241;-78
2022/08/22 05:44:21;;;;;;;3.83;2.70;;;;;;;16.05;61.47;92739.13;2018301;71;20153;-78
2022/08/22 05:47:14;;;;;;;4.47;2.83;;;;;;;15.94;62.67;92740.81;2018534;71;20141;-78
2022/08/22 05:49:55;;;;;;;7.75;3.33;;;;;;;16.06;61.05;92729.22;2012750;71;20238;-78
2022/08/22 05:52:36;;;;;;;5.00;3.20;;;;;;;15.95;62.07;92739.44;2015313;71;20189;-78
2022/08/22 05:55:08;;;;;;;3.97;2.92;;;;;;;16.16;60.05;92731.75;2018469;71;20170;-78
2022/08/22 05:57:40;;;;;;;5.20;2.70;;;;;;;16.23;60.55;92725.66;2018520;71;20240;-78
2022/08/22 06:00:11;;;;;;;5.70;2.85;;;;;;;16.08;61.76;92735.00;2018590;71;20154;-78
2022/08/22 06:02:58;;;;;;;5.78;3.03;;;;;;;16.02;61.57;92735.47;2018623;71;20153;-78
2022/08/22 06:05:29;;;;;;;6.97;3.13;;;;;;;15.98;62.71;92735.28;2017938;71;20158;-78
2022/08/22 06:08:19;;;;;;;4.38;2.80;;;;;;;16.19;61.66;92731.19;2012648;71;20138;-78
2022/08/22 06:11:01;;;;;;;4.15;2.95;;;;;;;16.15;61.50;92733.84;2012547;71;20225;-78
2022/08/22 06:13:54;;;;;;;4.40;3.05;;;;;;;16.16;61.74;92731.75;2018403;71;20199;-78
2022/08/22 06:16:31;;;;;;;8.70;3.05;;;;;;;16.36;59.22;92734.69;2018582;71;20157;-78
2022/08/22 06:18:58;;;;;;;5.00;3.13;;;;;;;16.31;60.30;92735.88;2018749;71;20138;-78
2022/08/22 06:21:34;;;;;;;5.57;3.10;;;;;;;16.24;60.58;92746.28;2018641;71;20233;-79
2022/08/22 06:24:02;;;;;;;5.60;3.03;;;;;;;16.22;60.83;92732.00;2015072;71;20202;-79
2022/08/22 06:26:36;;;;;;;5.78;3.40;;;;;;;16.14;62.49;92734.50;2015026;71;20526;-79
2022/08/22 06:29:06;;;;;;;9.00;2.90;;;;;;;16.42;59.23;92729.25;2018438;71;20614;-78
2022/08/22 06:31:45;;;;;;;6.18;3.30;;;;;;;16.29;60.34;92736.53;2018395;71;20587;-79
2022/08/22 06:34:16;;;;;;;4.55;3.28;;;;;;;16.20;61.96;92729.81;2018485;71;20693;-77
2022/08/22 06:36:47;;;;;;;5.13;3.25;;;;;;;15.97;62.71;92735.94;2018600;71;20188;-78
2022/08/22 06:39:36;;;;;;;4.32;3.30;;;;;;;16.26;62.33;92724.38;2018464;71;20150;-77
2022/08/22 06:42:15;;;;;;;5.03;2.70;;;;;;;16.55;61.54;92716.97;2014824;71;20161;-77
2022/08/22 06:44:59;;;;;;;4.20;2.80;;;;;;;16.44;61.30;92721.50;2018405;71;20207;-76
2022/08/22 06:48:00;;;;;;;6.30;2.95;;;;;;;16.71;60.68;92719.69;2014937;71;20504;-77
2022/08/22 06:50:30;;;;;;;4.97;3.08;;;;;;;17.13;60.39;92719.88;2016223;71;20146;-78
2022/08/22 06:53:04;;;;;;;4.88;2.90;;;;;;;17.59;59.42;92717.25;2014904;71;20591;-79
2022/08/22 06:55:31;;;;;;;7.32;2.80;;;;;;;17.77;60.08;92700.81;2015265;71;20154;-77
2022/08/22 06:58:02;;;;;;;10.52;2.70;;;;;;;18.09;59.37;92721.13;2018361;71;20253;-79
2022/08/22 07:00:30;;;;;;;4.45;2.67;;;;;;;18.54;57.95;92714.03;2018725;71;20157;-79
2022/08/22 07:03:06;;;;;;;6.28;4.10;;;;;;;18.62;56.23;92710.72;2018587;71;20588;-79
2022/08/22 07:05:39;;;;;;;7.22;2.80;;;;;;;19.11;57.29;92712.94;2018472;71;20173;-77
2022/08/22 07:08:14;;;;;;;3.30;2.42;;;;;;;19.34;56.81;92705.75;2014920;71;20572;-79
2022/08/22 07:10:44;;;;;;;3.75;2.35;;;;;;;19.79;56.05;92712.69;2018377;71;20177;-77
2022/08/22 07:13:18;;;;;;;5.18;2.47;;;;;;;20.05;55.49;92710.53;2018395;71;20220;-75
2022/08/22 07:15:54;;;;;;;4.45;2.42;;;;;;;20.02;54.77;92705.44;2018349;71;20532;-77
2022/08/22 07:18:24;;;;;;;4.65;2.45;;;;;;;20.01;54.00;92706.84;2018343;71;20708;-77
2022/08/22 07:20:54;;;;;;;3.40;2.10;;;;;;;20.14;52.17;92702.91;2012189;71;20146;-77
2022/08/22 07:23:25;;;;;;;5.45;2.70;;;;;;;19.53;55.70;92707.72;2018436;71;20696;-76
2022/08/22 07:26:14;;;;;;;4.15;2.80;;;;;;;20.42;52.40;92700.03;2018379;71;20265;-77
2022/08/22 07:28:54;;;;;;;4.30;2.72;;;;;;;20.60;51.99;92699.03;2012235;71;20149;-77
2022/08/22 07:31:32;;;;;;;4.07;2.92;;;;;;;20.97;51.74;92698.47;2018289;71;20378;-77
2022/08/22 07:34:16;;;;;;;4.05;3.00;;;;;;;21.61;51.43;92689.06;2018331;71;20261;-77
2022/08/22 07:37:12;;;;;;;5.72;2.70;;;;;;;21.37;50.04;92677.88;2018260;71;20226;-78
2022/08/22 07:39:57;;;;;;;3.72;2.15;;;;;;;21.91;48.80;92677.47;2018364;71;20257;-78
2022/08/22 07:42:37;;;;;;;9.15;2.30;;;;;;;22.26;47.59;92678.81;2018253;71;20183;-79
2022/08/22 07:45:08;;;;;;;3.33;2.40;;;;;;;22.78;46.88;92675.38;2018525;71;20153;-79
2022/08/22 07:48:02;;;;;;;2.65;2.35;;;;;;;22.52;45.82;92677.81;2018465;71;20201;-77
2022/08/22 07:50:29;;;;;;;;;;;;;;;22.97;47.26;92670.63;2014843;71;20234;-77
2022/08/22 07:53:10;;;;;;;3.45;2.10;;;;;;;24.06;43.20;92679.16;2018266;71;20046;-78
2022/08/22 07:55:37;;;;;;;3.47;2.40;;;;;;;23.21;43.56;92670.25;2018205;71;20146;-78
2022/08/22 07:58:06;;;;;;;3.15;2.53;;;;;;;24.16;43.40;92675.66;2018329;71;20164;-77
2022/08/22 08:00:33;;;;;;;3.33;2.38;;;;;;;24.31;42.62;92671.50;2018515;71;20157;-77
2022/08/22 08:03:06;;;;;;;3.35;2.20;;;;;;;23.99;41.95;92668.31;2018307;71;20245;-75
2022/08/22 08:05:35;;;;;;;3.65;2.33;;;;;;;23.87;42.72;92666.03;2015172;71;20169;-77
2022/08/22 08:08:11;;;;;;;2.40;2.20;;;;;;;24.23;42.70;92665.66;2015265;71;20169;-76
2022/08/22 08:10:39;;;;;;;3.20;2.38;;;;;;;24.53;41.83;92665.25;2018682;71;20161;-76
2022/08/22 08:13:10;;;;;;;2.95;2.10;;;;;;;24.99;40.64;92669.19;2018505;71;20154;-78
2022/08/22 08:15:38;;;;;;;2.60;2.13;;;;;;;25.46;40.81;92660.81;2018932;71;20182;-77
2022/08/22 08:18:17;;;;;;;3.88;2.38;;;;;;;25.50;42.42;92675.25;2018586;71;20157;-78
2022/08/22 08:20:49;;;;;;;7.13;2.28;;;;;;;25.39;39.83;92668.72;2018730;71;20244;-78
2022/08/22 08:23:18;;;;;;;2.92;2.35;;;;;;;25.32;39.94;92670.09;2017833;71;20215;-77
2022/08/22 08:25:53;;;;;;;3.78;2.50;;;;;;;25.82;39.39;92666.03;2018597;71;20162;-78
2022/08/22 08:28:36;;;;;;;2.72;2.10;;;;;;;26.32;39.96;92658.94;2015058;71;20146;-78
2022/08/22 08:31:36;;;;;;;3.47;2.45;;;;;;;26.47;40.37;92653.91;2018594;71;20230;-78
2022/08/22 08:34:09;;;;;;;3.97;2.20;;;;;;;26.59;38.98;92643.09;2015153;71;20626;-78
2022/08/22 08:36:51;;;;;;;3.55;2.78;;;;;;;26.61;39.78;92639.47;2018837;71;20672;-77
2022/08/22 08:39:33;;;;;;;3.38;2.40;;;;;;;26.66;38.20;92638.03;2018705;71;20152;-78
2022/08/22 08:43:25;;;;;;;3.93;2.20;;;;;;;27.64;38.15;92640.03;2018668;71;20158;-77
2022/08/22 08:45:37;;;;;;;3.30;2.25;;;;;;;28.84;35.15;92648.00;2018692;71;20200;-77
2022/08/22 08:48:16;;;;;;;4.97;2.60;;;;;;;26.56;37.69;92638.03;2018758;71;20153;-77
2022/08/22 08:50:59;;;;;;;4.35;2.45;;;;;;;27.04;37.73;92637.28;2018686;71;20329;-77
2022/08/22 08:53:43;;;;;;;;;;;;;;;27.17;38.27;92638.03;2018841;71;20141;-78
2022/08/22 08:56:11;;;;;;;5.28;2.25;;;;;;;28.06;38.19;92636.25;2018557;71;20155;-77
2022/08/22 08:58:53;;;;;;;3.10;2.38;;;;;;;27.93;37.39;92634.84;2018655;71;20188;-77
2022/08/22 09:01:43;;;;;;;4.00;2.53;;;;;;;27.90;36.59;92630.53;2015168;71;20514;-77
2022/08/22 09:04:15;;;;;;;3.53;2.35;;;;;;;28.17;34.46;92628.22;2018622;71;20222;-77
2022/08/22 09:06:51;;;;;;;2.47;2.25;;;;;;;28.39;35.01;92633.16;2018734;71;20163;-77
2022/08/22 09:09:57;;;;;;;2.70;2.30;;;;;;;28.22;36.31;92618.03;2018633;71;20184;-77
2022/08/22 09:12:55;;;;;;;4.75;2.00;;;;;;;28.36;35.71;92626.66;2018618;71;20157;-78
2022/08/22 09:15:54;;;;;;;2.83;1.98;;;;;;;28.14;35.41;92621.00;2018239;71;20142;-77
2022/08/22 09:18:46;;;;;;;2.20;2.00;;;;;;;28.94;36.17;92621.13;2018535;71;20141;-78
2022/08/22 09:21:36;;;;;;;2.58;2.38;;;;;;;29.42;34.18;92622.13;2011649;71;20207;-77
2022/08/22 09:24:37;;;;;;;5.00;2.40;;;;;;;28.73;34.06;92618.44;2018560;71;20180;-78
2022/08/22 09:27:13;;;;;;;3.13;2.25;;;;;;;29.85;32.88;92614.38;2018658;71;20153;-79
2022/08/22 09:29:47;;;;;;;5.43;2.40;;;;;;;30.44;31.53;92612.84;2018454;71;20141;-78
2022/08/22 09:32:27;;;;;;;4.65;2.25;;;;;;;30.77;31.05;92613.06;2018571;71;20184;-79
2022/08/22 09:35:06;;;;;;;3.42;2.30;;;;;;;30.92;32.01;92612.81;2018568;71;20598;-79
2022/08/22 09:37:38;;;;;;;2.78;2.50;;;;;;;30.41;31.16;92613.63;2018539;71;20133;-78
2022/08/22 09:40:12;;;;;;;2.50;2.28;;;;;;;30.62;32.75;92612.56;2018426;71;20274;-78
2022/08/22 09:42:53;;;;;;;7.82;2.45;;;;;;;30.76;31.03;92608.03;2018469;71;20161;-78
2022/08/22 09:45:38;;;;;;;4.28;2.45;;;;;;;30.05;31.56;92598.13;2018534;71;20244;-78
2022/08/22 09:48:16;;;;;;;3.03;2.13;;;;;;;31.18;30.25;92603.66;2018386;71;20564;-80
2022/08/22 09:50:57;;;;;;;3.08;2.33;;;;;;;30.11;31.12;92595.88;2018448;71;20193;-78
2022/08/22 09:53:41;;;;;;;3.50;2.17;;;;;;;29.82;30.38;92600.63;2018545;71;20158;-79
2022/08/22 09:56:15;;;;;;;5.28;2.60;;;;;;;29.66;29.40;92601.56;2018617;71;20192;-79
2022/08/22 09:58:51;;;;;;;4.10;2.50;;;;;;;29.42;29.19;92587.34;2018526;71;20223;-77
2022/08/22 10:01:17;;;;;;;3.58;2.15;;;;;;;28.80;27.02;92585.03;2015079;71;20237;-77
2022/08/22 10:04:31;;;;;;;3.00;2.33;;;;;;;27.99;29.30;92585.63;2018533;71;20148;-78
2022/08/22 10:07:32;;;;;;;2.65;2.35;;;;;;;28.76;29.00;92579.28;2009378;71;20247;-77
2022/08/22 10:10:41;;;;;;;3.70;2.22;;;;;;;29.16;29.01;92582.53;2018399;71;20580;-77
2022/08/22 10:13:45;;;;;;;2.97;2.40;;;;;;;28.72;27.92;92590.91;2018272;71;20161;-80
2022/08/22 10:16:20;;;;;;;2.40;2.17;;;;;;;30.24;28.02;92587.00;2018481;71;20198;-78
2022/08/22 10:19:03;;;;;;;3.10;2.45;;;;;;;30.17;26.53;92579.88;2018761;71;20227;-79
2022/08/22 10:21:34;;;;;;;2.40;2.20;;;;;;;31.16;27.38;92577.53;2018841;71;20282;-80
2022/08/22 10:24:28;;;;;;;2.58;2.30;;;;;;;31.50;25.50;92581.25;2018017;71;20173;-78
2022/08/22 10:26:58;;;;;;;2.42;2.10;;;;;;;31.94;23.61;92570.94;2018342;71;20194;-78
2022/08/22 10:30:02;;;;;;;2.45;2.22;;;;;;;32.67;24.97;92571.47;2014985;71;20536;-79
2022/08/22 10:33:05;;;;;;;3.70;2.20;;;;;;;32.43;26.12;92580.78;2018445;71;20230;-78
2022/08/22 10:35:50;;;;;;;4.72;2.17;;;;;;;32.66;23.93;92575.13;2020078;71;20189;-77
2022/08/22 10:38:24;;;;;;;3.50;2.50;;;;;;;32.68;22.32;92575.09;2020471;71;20176;-78
2022/08/22 10:41:07;;;;;;;2.47;1.90;;;;;;;34.12;23.57;92571.22;2017058;71;20216;-78
2022/08/22 10:43:44;;;;;;;5.43;2.38;;;;;;;34.45;22.55;92575.34;2017972;71;20183;-77
2022/08/22 10:46:59;;;;;;;2.83;2.03;;;;;;;35.23;21.85;92564.78;2018363;71;20182;-79
2022/08/22 10:49:49;;;;;;;2.28;2.00;;;;;;;35.05;21.04;92558.09;2007594;71;20236;-80
2022/08/22 10:52:33;;;;;;;2.95;2.13;;;;;;;35.62;21.80;92561.25;2017960;71;20218;-78
2022/08/22 10:55:07;;;;;;;2.88;2.00;;;;;;;35.99;21.60;92563.56;2017615;71;20150;-82
2022/08/22 10:57:54;;;;;;;3.53;2.05;;;;;;;36.01;20.32;92559.81;2021179;71;20157;-83
2022/08/22 11:00:42;;;;;;;3.20;2.00;;;;;;;36.68;19.66;92551.38;2018033;71;20141;-79
2022/08/22 11:03:32;;;;;;;4.45;2.10;;;;;;;36.68;17.77;92559.47;2021191;71;20289;-79
2022/08/22 11:06:00;;;;;;;3.88;2.15;;;;;;;38.38;16.38;92553.63;2020681;71;20188;-81
2022/08/22 11:08:28;;;;;;;2.50;1.88;;;;;;;37.13;17.31;92553.22;2020250;71;20572;-81
2022/08/22 11:11:19;;;;;;;2.20;1.60;;;;;;;41.08;15.77;92558.09;2021218;71;20165;-77
2022/08/22 11:13:56;;;;;;;2.75;1.77;;;;;;;41.96;14.94;92561.78;2020919;71;20161;-78
2022/08/22 11:16:25;;;;;;;1.88;1.63;;;;;;;42.70;14.03;92552.75;2020877;71;20152;-80
2022/08/22 11:19:04;;;;;;;3.20;1.80;;;;;;;42.33;14.11;92552.09;2021081;71;20680;-81
2022/08/22 11:22:18;;;;;;;2.08;1.80;;;;;;;45.33;13.38;92564.31;2021427;71;20141;-78
2022/08/22 11:25:08;;;;;;;2.55;1.75;;;;;;;43.56;13.54;92550.81;2021098;71;20508;-81
2022/08/22 11:28:11;;;;;;;2.13;1.58;;;;;;;39.68;14.82;92539.91;2021568;71;20259;-80
2022/08/22 11:31:08;;;;;;;2.50;1.83;;;;;;;45.36;11.82;92559.66;2017974;71;20215;-82
2022/08/22 11:33:49;;;;;;;3.00;1.98;;;;;;;38.47;16.42;92542.19;2021102;71;20257;-81
2022/08/22 11:36:36;;;;;;;2.80;1.73;;;;;;;39.37;16.60;92529.69;2021057;71;20152;-80
2022/08/22 11:39:26;;;;;;;4.10;1.65;;;;;;;40.52;14.79;92539.81;2021227;71;20273;-78
2022/08/22 11:42:06;;;;;;;2.83;1.67;;;;;;;42.07;14.76;92541.91;2021537;71;20607;-78
2022/08/22 11:44:48;;;;;;;1.77;1.67;;;;;;;42.02;14.14;92544.41;2021756;71;20161;-79
2022/08/22 11:47:17;;;;;;;2.50;1.80;;;;;;;40.23;15.50;92557.63;2022146;71;20350;-79
2022/08/22 11:49:46;;;;;;;3.63;1.90;;;;;;;40.73;14.51;92550.47;2021815;71;20195;-79
2022/08/22 11:52:46;;;;;;;1.98;1.70;;;;;;;45.23;13.65;92562.13;2021972;71;20165;-77
2022/08/22 11:55:30;;;;;;;3.30;1.70;;;;;;;45.79;12.34;92564.69;2022185;71;20265;-78
2022/08/22 11:58:34;;;;;;;2.90;2.03;;;;;;;43.04;13.04;92558.72;2021563;71;20164;-77
2022/08/22 12:01:09;;;;;;;2.05;1.70;;;;;;;45.01;11.94;92549.63;2021667;71;20237;-77
2022/08/22 12:03:40;;;;;;;3.13;1.83;;;;;;;43.40;12.87;92537.09;2021767;71;20287;-77
2022/08/22 12:06:25;;;;;;;3.88;1.77;;;;;;;43.87;12.70;92549.47;2018249;71;20157;-78
2022/08/22 12:09:17;;;;;;;1.90;1.48;;;;;;;43.78;13.17;92551.56;2021860;71;20192;-80
2022/08/22 12:12:02;;;;;;;3.22;1.65;;;;;;;45.00;11.83;92550.47;2022021;71;20157;-79
2022/08/22 12:14:44;;;;;;;1.50;1.40;;;;;;;46.09;11.88;92559.31;2017799;71;20232;-80
2022/08/22 12:17:37;;;;;;;2.80;1.73;;;;;;;43.79;11.88;92552.25;2021586;71;20313;-79
2022/08/22 12:20:38;;;;;;;2.47;1.55;;;;;;;43.01;12.42;92533.72;2021319;71;20361;-81
2022/08/22 12:23:45;;;;;;;2.08;1.85;;;;;;;45.01;12.24;92537.03;2021424;71;20153;-79
2022/08/22 12:26:34;;;;;;;1.67;1.50;;;;;;;42.26;12.33;92514.88;2013466;71;20157;-78
2022/08/22 12:29:20;;;;;;;1.60;1.50;;;;;;;45.20;11.12;92531.16;2021232;71;20176;-77
2022/08/22 12:32:14;;;;;;;2.08;1.60;;;;;;;42.45;13.39;92512.16;2017729;71;20149;-79
2022/08/22 12:34:52;;;;;;;3.28;1.45;;;;;;;41.67;12.99;92503.69;2021028;71;20615;-79
2022/08/22 12:37:26;;;;;;;1.75;1.50;;;;;;;41.07;13.64;92512.41;2021497;71;20160;-77
2022/08/22 12:40:14;;;;;;;1.52;1.42;;;;;;;40.89;13.63;92514.84;2021627;71;20224;-79
2022/08/22 12:43:01;;;;;;;1.73;1.60;;;;;;;42.28;12.21;92508.81;2020360;71;20158;-78
2022/08/22 12:45:30;;;;;;;3.38;1.38;;;;;;;43.21;12.13;92513.94;2021367;71;20238;-76
2022/08/22 12:48:12;;;;;;;1.80;1.70;;;;;;;39.87;13.86;92508.66;2021236;71;20195;-77